Time;durP1;ratioP1;P1;durP2;ratioP2;P2;SDS_P1;SDS_P2;PMS_P1;PMS_P2;Temp;Humidity;BMP_temperature;BMP_pressure;BME280_temperature;BME280_humidity;BME280_pressure;Samples;Min_cycle;Max_cycle;Signal;HPM_P1;HPM_P2
2023/05/30 00:00:13;;;;;;;5.60;3.15;;;;;;;17.00;81.88;101146.50;4970901;28;20500;-86
2023/05/30 00:02:41;;;;;;;10.07;2.78;;;;;;;16.87;82.48;101152.56;4971064;28;20038;-85
2023/05/30 00:05:07;;;;;;;4.90;3.10;;;;;;;16.82;82.57;101148.59;4970670;28;20093;-85
2023/05/30 00:07:33;;;;;;;6.22;3.13;;;;;;;16.77;82.60;101148.91;4987114;28;20027;-85
2023/05/30 00:09:58;;;;;;;11.68;3.45;;;;;;;16.70;83.29;101158.06;4970565;28;20026;-86
2023/05/30 00:12:23;;;;;;;4.22;2.90;;;;;;;16.67;84.05;101146.97;4972032;28;20034;-85
2023/05/30 00:14:49;;;;;;;8.70;3.53;;;;;;;16.62;83.88;101136.84;4986436;28;20034;-85
2023/05/30 00:17:16;;;;;;;10.55;2.95;;;;;;;16.63;83.33;101130.66;4987206;28;20027;-86
2023/05/30 00:19:42;;;;;;;9.90;3.55;;;;;;;16.71;83.05;101140.63;4970469;28;20432;-85
2023/05/30 00:22:08;;;;;;;9.55;3.28;;;;;;;16.64;82.92;101134.94;4986868;28;20043;-85
2023/05/30 00:24:33;;;;;;;7.78;2.92;;;;;;;16.72;83.36;101142.31;4970506;28;20555;-85
2023/05/30 00:26:58;;;;;;;4.88;2.92;;;;;;;16.80;83.09;101140.84;4970441;28;20467;-85
2023/05/30 00:29:24;;;;;;;6.75;2.70;;;;;;;16.76;83.25;101138.56;4986577;28;20390;-84
2023/05/30 00:31:49;;;;;;;9.85;3.22;;;;;;;16.79;83.47;101139.16;4970771;28;20035;-85
2023/05/30 00:34:15;;;;;;;6.20;2.42;;;;;;;16.69;83.53;101138.09;4970596;28;20034;-86
2023/05/30 00:36:40;;;;;;;6.35;2.70;;;;;;;16.66;83.66;101133.06;4970664;28;20057;-85
2023/05/30 00:39:06;;;;;;;6.68;2.92;;;;;;;16.61;83.75;101127.28;4971126;28;20041;-86
2023/05/30 00:41:31;;;;;;;4.18;2.90;;;;;;;16.83;83.69;101156.34;4970655;28;20038;-85
2023/05/30 00:43:56;;;;;;;9.35;3.30;;;;;;;16.83;83.64;101156.34;4970462;28;20035;-85
2023/05/30 00:46:25;;;;;;;4.68;2.70;;;;;;;16.65;83.93;101131.41;4986712;28;20059;-87
2023/05/30 00:48:50;;;;;;;4.95;2.72;;;;;;;16.91;83.23;101159.28;4986678;28;20038;-85
2023/05/30 00:51:16;;;;;;;4.78;3.30;;;;;;;16.89;83.17;101148.06;4970383;28;20412;-85
2023/05/30 00:53:41;;;;;;;5.45;3.20;;;;;;;16.90;83.29;101148.91;4986365;28;20034;-85
2023/05/30 00:56:07;;;;;;;4.50;2.78;;;;;;;16.74;83.63;101133.44;4970488;28;20030;-85
2023/05/30 00:58:33;;;;;;;6.43;3.17;;;;;;;16.64;84.05;101124.50;4954274;28;20035;-84
2023/05/30 01:00:59;;;;;;;4.70;3.17;;;;;;;16.81;84.08;101152.13;4986305;28;20035;-85
2023/05/30 01:03:27;;;;;;;5.28;3.08;;;;;;;16.68;84.20;101133.81;4986349;28;20396;-84
2023/05/30 01:05:53;;;;;;;10.13;3.70;;;;;;;16.65;84.01;101118.34;4970389;28;20030;-85
2023/05/30 01:08:18;;;;;;;10.00;2.90;;;;;;;16.80;83.92;101145.22;4969950;28;20027;-85
2023/05/30 01:10:44;;;;;;;7.53;2.83;;;;;;;16.69;84.29;101138.09;4986377;28;20099;-84
2023/05/30 01:13:18;;;;;;;5.80;3.45;;;;;;;16.77;84.09;101146.28;4986413;28;20031;-85
2023/05/30 01:15:52;;;;;;;3.78;2.72;;;;;;;16.71;83.71;101151.06;4970096;28;20444;-85
2023/05/30 01:18:33;;;;;;;8.65;3.25;;;;;;;16.56;83.55;101125.00;4970204;28;20062;-85
2023/05/30 01:21:00;;;;;;;5.03;3.10;;;;;;;16.69;83.59;101147.72;4986158;28;20460;-85
2023/05/30 01:24:06;;;;;;;7.05;2.95;;;;;;;16.68;83.60;101152.13;4969923;28;20034;-85
2023/05/30 01:27:04;;;;;;;4.85;2.90;;;;;;;16.62;84.10;101149.91;4971365;28;20515;-84
2023/05/30 01:29:30;;;;;;;5.55;3.50;;;;;;;16.59;84.36;101152.69;4973660;28;20444;-85
2023/05/30 01:31:55;;;;;;;4.07;3.00;;;;;;;16.44;85.15;101140.66;4973667;28;20477;-85
2023/05/30 01:34:21;;;;;;;6.47;3.95;;;;;;;16.51;85.08;101147.13;4973553;28;20489;-85
2023/05/30 01:36:46;;;;;;;4.75;3.10;;;;;;;16.37;84.74;101131.53;4989678;28;20492;-85
2023/05/30 01:39:12;;;;;;;11.80;3.50;;;;;;;16.43;85.15;101136.38;4972920;28;20543;-85
2023/05/30 01:42:02;;;;;;;5.53;3.38;;;;;;;16.46;84.26;101130.94;4989658;28;20562;-85
2023/05/30 01:44:59;;;;;;;4.13;3.10;;;;;;;16.43;84.57;101136.38;4987448;28;20034;-85
2023/05/30 01:47:46;;;;;;;4.93;3.17;;;;;;;16.47;84.14;101154.31;4973218;28;20073;-84
2023/05/30 01:50:15;;;;;;;9.93;3.20;;;;;;;16.37;84.23;101150.63;4974528;28;20135;-85
2023/05/30 01:52:41;;;;;;;7.13;3.33;;;;;;;16.37;84.79;101148.03;4972954;28;20222;-85
2023/05/30 01:55:07;;;;;;;4.57;2.88;;;;;;;16.41;84.55;101148.66;4973119;28;20161;-84
2023/05/30 01:57:33;;;;;;;6.43;3.67;;;;;;;16.41;84.75;101156.50;4989351;28;20086;-85
2023/05/30 01:59:59;;;;;;;6.15;2.97;;;;;;;16.38;84.67;101146.25;4972998;28;20440;-85
2023/05/30 02:02:25;;;;;;;6.05;3.88;;;;;;;16.38;84.10;101138.41;4972856;28;20444;-85
2023/05/30 02:04:50;;;;;;;4.50;2.90;;;;;;;16.42;84.44;101148.59;4989254;28;20038;-85
2023/05/30 02:07:15;;;;;;;4.78;3.35;;;;;;;16.45;84.43;101158.81;4972428;28;20031;-84
2023/05/30 02:09:41;;;;;;;6.65;3.80;;;;;;;16.38;84.26;101151.47;4973263;28;20030;-85
2023/05/30 02:12:07;;;;;;;6.93;3.63;;;;;;;16.34;84.87;101158.69;4972948;28;20062;-85
2023/05/30 02:14:33;;;;;;;6.25;3.95;;;;;;;16.37;84.56;101150.63;4989000;28;20614;-85
2023/05/30 02:17:02;;;;;;;5.72;3.17;;;;;;;16.44;84.24;101148.47;4972889;28;20038;-85
2023/05/30 02:19:28;;;;;;;4.57;3.08;;;;;;;16.34;85.01;101149.06;4972371;28;20440;-84
2023/05/30 02:21:53;;;;;;;7.90;3.72;;;;;;;16.29;84.76;101145.91;4973610;28;20038;-85
2023/05/30 02:24:19;;;;;;;7.40;3.70;;;;;;;16.28;84.73;101151.22;4972592;28;20027;-85
2023/05/30 02:26:44;;;;;;;5.35;3.72;;;;;;;16.21;84.95;101148.16;4972398;28;20043;-85
2023/05/30 02:29:10;;;;;;;17.02;5.03;;;;;;;16.09;85.42;101138.53;4973799;28;20023;-85
2023/05/30 02:31:35;;;;;;;4.82;3.53;;;;;;;16.22;85.33;101162.94;4973663;28;20030;-85
2023/05/30 02:34:01;;;;;;;7.82;3.22;;;;;;;16.32;85.22;101166.63;4988699;28;20023;-85
2023/05/30 02:36:26;;;;;;;5.97;3.83;;;;;;;16.28;84.56;101164.28;4971941;28;20035;-85
2023/05/30 02:38:52;;;;;;;9.77;3.92;;;;;;;16.26;85.32;101160.94;4972236;28;20089;-85
2023/05/30 02:41:17;;;;;;;8.38;3.58;;;;;;;16.17;85.46;101144.09;4988514;28;20026;-85
2023/05/30 02:43:43;;;;;;;5.85;3.53;;;;;;;16.15;85.45;101150.34;4972289;28;20089;-85
2023/05/30 02:46:08;;;;;;;6.47;3.88;;;;;;;16.21;85.37;101166.44;4972153;28;20033;-85
2023/05/30 02:48:34;;;;;;;4.97;3.65;;;;;;;16.13;84.99;101155.69;4972501;28;20030;-85
2023/05/30 02:51:00;;;;;;;7.85;3.97;;;;;;;16.18;85.61;101164.03;4987753;28;20069;-85
2023/05/30 02:53:25;;;;;;;7.03;3.95;;;;;;;16.27;85.84;101176.50;4972233;28;20026;-85
2023/05/30 02:55:50;;;;;;;7.18;3.88;;;;;;;16.20;85.56;101172.59;4988292;28;20038;-85
2023/05/30 02:58:16;;;;;;;4.93;3.45;;;;;;;16.36;85.07;101188.13;4988468;28;20077;-83
2023/05/30 03:00:42;;;;;;;6.20;3.60;;;;;;;16.31;85.66;101188.41;4971942;28;20035;-84
2023/05/30 03:03:10;;;;;;;7.30;3.78;;;;;;;16.17;86.24;101167.59;4987829;28;20027;-84
2023/05/30 03:05:36;;;;;;;13.60;3.13;;;;;;;16.33;86.31;101189.19;4987637;28;20117;-84
2023/05/30 03:08:02;;;;;;;8.73;3.90;;;;;;;16.28;85.93;101180.78;4988376;28;20058;-86
2023/05/30 03:10:28;;;;;;;6.15;3.60;;;;;;;16.23;85.85;101159.38;4971666;28;20027;-84
2023/05/30 03:12:54;;;;;;;5.40;3.70;;;;;;;16.26;86.34;101161.78;4971698;28;20031;-84
2023/05/30 03:15:21;;;;;;;6.03;3.85;;;;;;;16.34;86.27;101175.19;4971593;28;20037;-84
2023/05/30 03:17:46;;;;;;;6.45;3.83;;;;;;;16.30;85.87;101171.06;4971493;28;20034;-85
2023/05/30 03:20:12;;;;;;;7.18;4.47;;;;;;;16.37;85.80;101174.16;4971291;28;20141;-84
2023/05/30 03:22:38;;;;;;;10.57;4.07;;;;;;;16.36;85.11;101156.81;4971558;28;20106;-85
2023/05/30 03:25:05;;;;;;;6.63;4.60;;;;;;;16.38;84.86;101167.97;4987644;28;20449;-87
2023/05/30 03:27:30;;;;;;;6.40;4.63;;;;;;;16.31;85.66;101175.34;4966290;28;20065;-85
2023/05/30 03:29:56;;;;;;;12.48;4.38;;;;;;;16.32;85.79;101173.59;4990978;28;20488;-86
2023/05/30 03:32:21;;;;;;;12.50;4.95;;;;;;;16.33;85.75;101173.50;4990621;28;20042;-88
2023/05/30 03:34:47;;;;;;;10.27;4.35;;;;;;;16.34;85.50;101179.56;4958209;28;20080;-87
2023/05/30 03:37:12;;;;;;;11.68;4.32;;;;;;;16.34;85.99;101177.78;4958412;28;20419;-88
2023/05/30 03:39:38;;;;;;;8.43;4.03;;;;;;;16.34;86.16;101180.41;4990038;28;20034;-90
2023/05/30 03:42:04;;;;;;;9.68;4.45;;;;;;;16.42;85.87;101189.50;4974388;28;20030;-89
2023/05/30 03:44:30;;;;;;;8.80;4.18;;;;;;;16.37;86.26;101181.97;4974288;28;20034;-87
2023/05/30 03:46:55;;;;;;;8.77;4.45;;;;;;;16.42;85.88;101186.88;4990730;28;20431;-88
2023/05/30 03:49:21;;;;;;;7.00;4.10;;;;;;;16.48;86.21;101196.94;4973978;28;20034;-86
2023/05/30 03:51:46;;;;;;;7.72;3.50;;;;;;;16.48;85.72;101196.94;4973757;28;20030;-86
2023/05/30 03:54:12;;;;;;;9.63;3.88;;;;;;;16.45;85.21;101200.59;4974092;28;20479;-86
2023/05/30 03:56:37;;;;;;;10.45;3.97;;;;;;;16.53;85.20;101200.94;4974170;28;20405;-87
2023/05/30 03:59:03;;;;;;;10.43;4.07;;;;;;;17.20;82.71;101195.66;4991767;28;20027;-86
2023/05/30 04:01:28;;;;;;;8.70;3.30;;;;;;;18.21;76.67;101188.66;4974106;28;20026;-86
2023/05/30 04:03:54;;;;;;;8.45;3.40;;;;;;;18.75;74.54;101189.06;5000391;28;20104;-86
2023/05/30 04:06:19;;;;;;;8.40;2.97;;;;;;;19.52;71.20;101189.31;5011191;28;20100;-85
2023/05/30 04:08:45;;;;;;;13.23;4.55;;;;;;;19.06;72.21;101182.34;4997073;28;20049;-86
2023/05/30 04:11:10;;;;;;;10.73;4.00;;;;;;;19.10;71.87;101189.03;4990112;28;20062;-87
2023/05/30 04:13:36;;;;;;;9.05;4.40;;;;;;;19.73;68.90;101195.56;4973828;28;20038;-84
2023/05/30 04:16:01;;;;;;;12.70;4.32;;;;;;;20.03;67.20;101199.34;4991949;28;20081;-89
2023/05/30 04:18:27;;;;;;;18.10;4.82;;;;;;;20.10;66.95;101211.03;4985925;28;20050;-90
2023/05/30 04:20:52;;;;;;;14.40;4.20;;;;;;;19.78;67.90;101210.97;4977229;28;20026;-84
2023/05/30 04:23:17;;;;;;;14.48;4.40;;;;;;;19.31;70.10;101209.34;5012304;28;20029;-88
2023/05/30 04:25:44;;;;;;;11.60;4.95;;;;;;;19.09;71.58;101212.75;5001786;28;20061;-83
2023/05/30 04:28:16;;;;;;;12.52;4.65;;;;;;;18.90;72.14;101208.06;5010411;28;20029;-90
2023/05/30 04:30:48;;;;;;;;;;;;;;;18.63;73.07;101216.97;5010492;28;20026;-81
2023/05/30 04:33:17;;;;;;;13.30;4.43;;;;;;;18.69;73.34;101215.72;5010118;28;19920;-91
2023/05/30 04:35:44;;;;;;;9.27;4.35;;;;;;;18.45;73.27;101202.59;4995283;28;20034;-93
2023/05/30 04:38:09;;;;;;;14.38;4.22;;;;;;;18.31;74.25;101198.38;4993715;28;20443;-93
2023/05/30 04:40:36;;;;;;;9.65;4.35;;;;;;;18.14;74.80;101197.91;5011931;28;20039;-90
2023/05/30 04:43:02;;;;;;;8.85;4.25;;;;;;;18.06;75.62;101201.88;5009763;28;20026;-92
2023/05/30 04:45:29;;;;;;;8.60;4.10;;;;;;;18.00;75.92;101197.09;4992669;28;20034;-86
2023/05/30 04:47:55;;;;;;;7.25;4.40;;;;;;;18.40;76.13;101206.50;4986628;28;20022;-86
2023/05/30 04:50:20;;;;;;;16.25;4.93;;;;;;;18.53;75.53;101210.72;4988757;28;20084;-87
2023/05/30 04:52:46;;;;;;;11.55;4.78;;;;;;;18.31;75.57;101194.91;4971544;28;20037;-90
2023/05/30 04:55:12;;;;;;;56.35;37.35;;;;;;;18.40;75.95;101217.00;4971623;28;20023;-89
2023/05/30 04:57:40;;;;;;;35.00;16.77;;;;;;;18.35;77.55;101212.06;4997176;28;20769;-89
2023/05/30 05:00:15;;;;;;;12.35;5.47;;;;;;;18.26;77.16;101217.97;4987221;28;20037;-91
2023/05/30 05:02:44;;;;;;;7.13;4.63;;;;;;;18.21;76.24;101225.31;4977488;28;20492;-85
2023/05/30 05:05:09;;;;;;;16.35;5.13;;;;;;;18.11;76.48;101225.16;4996851;28;20484;-86
2023/05/30 05:07:35;;;;;;;10.68;3.90;;;;;;;17.98;76.81;101216.47;4990714;28;20041;-87
2023/05/30 05:10:01;;;;;;;7.00;3.92;;;;;;;18.02;78.47;101231.88;4989936;28;20109;-89
2023/05/30 05:12:26;;;;;;;9.55;4.57;;;;;;;18.00;79.17;101228.53;4991561;28;20105;-92
2023/05/30 05:14:54;;;;;;;26.58;16.77;;;;;;;18.02;81.05;101210.91;4978317;28;20042;-87
2023/05/30 05:17:19;;;;;;;7.32;5.18;;;;;;;18.14;78.98;101218.84;4994020;28;20030;-84
2023/05/30 05:19:45;;;;;;;10.70;5.70;;;;;;;18.18;78.36;101222.91;4991717;28;20049;-86
2023/05/30 05:22:10;;;;;;;10.73;5.75;;;;;;;18.09;77.27;101194.75;5002869;28;20026;-94
2023/05/30 05:24:36;;;;;;;8.70;5.57;;;;;;;18.25;77.00;101232.00;4977729;28;20041;-90
2023/05/30 05:27:01;;;;;;;14.07;5.82;;;;;;;18.13;77.23;101191.00;4987128;28;20081;-88
2023/05/30 05:29:26;;;;;;;10.77;7.38;;;;;;;18.43;77.71;101219.38;4992797;28;20133;-86
2023/05/30 05:31:52;;;;;;;8.05;4.90;;;;;;;18.59;78.51;101233.88;4992080;28;20038;-89
2023/05/30 05:34:17;;;;;;;8.98;5.30;;;;;;;18.74;76.54;101238.97;4992624;28;20034;-85
2023/05/30 05:36:43;;;;;;;8.48;5.07;;;;;;;18.74;76.09;101228.47;4975981;28;20019;-84
2023/05/30 05:39:08;;;;;;;7.95;5.07;;;;;;;18.81;75.27;101232.34;4992148;28;20448;-86
2023/05/30 05:41:34;;;;;;;10.55;5.10;;;;;;;18.85;74.25;101231.97;4975317;28;20038;-88
2023/05/30 05:44:00;;;;;;;7.43;4.40;;;;;;;18.92;74.71;101232.38;4990591;28;20061;-85
2023/05/30 05:46:25;;;;;;;10.45;4.40;;;;;;;18.92;75.16;101235.00;4975114;28;20030;-86
2023/05/30 05:48:51;;;;;;;7.32;4.72;;;;;;;18.98;73.74;101225.84;4997307;28;20060;-86
2023/05/30 05:51:16;;;;;;;8.10;5.63;;;;;;;19.00;74.66;101240.50;5010938;28;20022;-85
2023/05/30 05:53:42;;;;;;;7.68;4.35;;;;;;;19.04;73.85;101222.75;5003076;28;20034;-91
2023/05/30 05:56:07;;;;;;;7.53;4.30;;;;;;;19.02;73.60;101217.63;5002876;28;20046;-88
2023/05/30 05:58:32;;;;;;;11.68;6.93;;;;;;;19.13;75.48;101241.25;4991211;28;20022;-90
2023/05/30 06:00:58;;;;;;;25.75;19.05;;;;;;;19.22;73.04;101244.97;4966139;28;20400;-88
2023/05/30 06:03:23;;;;;;;9.43;6.43;;;;;;;19.23;73.04;101241.41;4999084;28;20026;-94
2023/05/30 06:05:49;;;;;;;10.30;5.03;;;;;;;19.27;75.05;101247.22;4999310;28;20033;-94
2023/05/30 06:08:14;;;;;;;16.10;6.50;;;;;;;19.50;73.53;101254.22;5011231;28;20025;-94
2023/05/30 06:10:40;;;;;;;8.45;4.93;;;;;;;19.55;71.60;101252.06;4974566;28;20124;-92
2023/05/30 06:13:05;;;;;;;6.63;4.20;;;;;;;19.69;73.74;101254.50;4961682;28;20037;-89
2023/05/30 06:15:31;;;;;;;6.43;4.50;;;;;;;19.89;73.09;101239.00;4993266;28;20511;-87
2023/05/30 06:17:56;;;;;;;11.55;5.00;;;;;;;20.13;70.39;101254.59;4973459;28;20037;-92
2023/05/30 06:20:21;;;;;;;12.80;5.05;;;;;;;20.18;69.92;101263.81;4991123;28;20054;-91
2023/05/30 06:22:47;;;;;;;8.23;4.53;;;;;;;20.22;69.09;101267.00;4973621;28;20076;-90
2023/05/30 06:25:13;;;;;;;10.07;4.93;;;;;;;20.22;68.59;101274.88;4960902;28;20030;-92
2023/05/30 06:27:38;;;;;;;6.60;4.03;;;;;;;20.39;69.96;101284.06;4961126;28;20101;-90
2023/05/30 06:30:05;;;;;;;8.18;4.95;;;;;;;20.47;69.10;101272.03;4988536;28;20074;-86
2023/05/30 06:32:31;;;;;;;13.82;6.97;;;;;;;20.73;69.38;101276.94;4991724;28;20022;-85
2023/05/30 06:34:56;;;;;;;13.25;5.63;;;;;;;20.73;66.85;101259.38;4991122;28;20026;-84
2023/05/30 06:37:22;;;;;;;8.48;5.75;;;;;;;20.95;66.91;101276.06;5010764;28;20034;-83
2023/05/30 06:39:47;;;;;;;7.72;4.95;;;;;;;20.78;65.40;101267.75;4994650;28;20122;-85
2023/05/30 06:42:13;;;;;;;9.05;4.68;;;;;;;20.88;68.02;101255.50;4987718;28;20487;-91
2023/05/30 06:44:38;;;;;;;8.07;4.43;;;;;;;21.03;66.32;101265.72;4963528;28;20406;-88
2023/05/30 06:47:04;;;;;;;48.03;26.75;;;;;;;20.99;66.05;101266.94;4974755;28;20026;-90
2023/05/30 06:49:30;;;;;;;16.42;10.10;;;;;;;21.19;66.34;101263.47;4991638;28;20038;-90
2023/05/30 06:51:56;;;;;;;9.93;5.75;;;;;;;21.14;66.45;101256.00;4996186;28;20046;-88
2023/05/30 06:54:21;;;;;;;10.82;7.18;;;;;;;21.26;66.00;101221.72;4977213;28;20023;-89
2023/05/30 06:56:47;;;;;;;9.88;5.35;;;;;;;21.50;66.00;101250.41;4993614;28;20034;-89
2023/05/30 06:59:12;;;;;;;8.80;5.40;;;;;;;21.57;65.25;101236.59;4970744;28;20481;-87
2023/05/30 07:01:38;;;;;;;8.40;4.20;;;;;;;21.80;63.58;101252.22;4989897;28;20117;-89
2023/05/30 07:04:03;;;;;;;7.03;3.83;;;;;;;21.84;63.52;101254.47;5000377;28;20040;-87
2023/05/30 07:06:29;;;;;;;5.95;3.78;;;;;;;21.88;63.77;101247.13;4987431;28;20108;-87
2023/05/30 07:08:55;;;;;;;6.43;4.03;;;;;;;21.94;62.37;101213.19;4958807;28;20030;-91
2023/05/30 07:11:20;;;;;;;6.90;3.97;;;;;;;22.13;63.10;101228.25;4990540;28;20412;-90
2023/05/30 07:13:45;;;;;;;8.07;4.05;;;;;;;22.12;62.74;101212.53;4990634;28;20026;-90
2023/05/30 07:16:11;;;;;;;6.30;4.30;;;;;;;22.37;62.24;101225.22;4989698;28;20026;-87
2023/05/30 07:18:36;;;;;;;6.00;3.70;;;;;;;22.46;60.80;101213.84;4992584;28;20050;-85
2023/05/30 07:21:02;;;;;;;7.45;3.80;;;;;;;22.53;60.89;101230.81;5007293;28;20435;-87
2023/05/30 07:23:27;;;;;;;4.60;3.30;;;;;;;22.58;60.75;101222.47;5007633;28;20372;-86
2023/05/30 07:25:53;;;;;;;6.07;3.42;;;;;;;22.85;59.96;101237.63;4992888;28;20049;-89
2023/05/30 07:28:20;;;;;;;8.07;3.55;;;;;;;23.01;60.94;101234.41;4961399;28;20051;-89
2023/05/30 07:30:46;;;;;;;7.50;4.63;;;;;;;23.06;59.97;101238.31;4989754;28;20034;-85
2023/05/30 07:33:11;;;;;;;8.82;5.10;;;;;;;23.19;60.31;101243.28;5007834;28;20085;-93
2023/05/30 07:35:37;;;;;;;6.53;4.10;;;;;;;23.27;59.62;101230.19;4972760;28;20089;-90
2023/05/30 07:38:02;;;;;;;5.82;3.72;;;;;;;23.34;58.95;101236.59;4972720;28;20533;-88
2023/05/30 07:40:28;;;;;;;7.75;4.45;;;;;;;23.42;58.81;101225.31;4986267;28;20030;-90
2023/05/30 07:42:53;;;;;;;7.57;4.15;;;;;;;23.50;58.90;101233.34;4989388;28;20030;-85
2023/05/30 07:45:20;;;;;;;6.65;3.28;;;;;;;23.48;58.54;101238.75;4973636;28;20100;-87
2023/05/30 07:47:45;;;;;;;5.63;3.75;;;;;;;23.50;57.62;101232.50;4978545;28;20038;-88
2023/05/30 07:50:11;;;;;;;5.03;3.65;;;;;;;23.66;57.63;101240.69;4990918;28;20422;-82
2023/05/30 07:52:37;;;;;;;5.22;3.60;;;;;;;23.70;56.68;101244.72;4990862;28;20038;-81
2023/05/30 07:55:02;;;;;;;5.70;3.33;;;;;;;23.76;57.15;101236.19;4989942;28;20527;-89
2023/05/30 07:57:28;;;;;;;6.65;3.95;;;;;;;23.84;57.27;101240.75;4980683;28;20042;-84
2023/05/30 07:59:53;;;;;;;8.50;3.90;;;;;;;23.85;55.78;101234.47;4988397;28;20321;-88
2023/05/30 08:02:20;;;;;;;6.03;4.35;;;;;;;23.90;55.56;101226.97;4983957;28;20031;-91
2023/05/30 08:04:46;;;;;;;4.20;3.10;;;;;;;23.93;56.64;101242.53;4987456;28;20038;-85
2023/05/30 08:07:11;;;;;;;7.13;4.00;;;;;;;24.01;56.34;101245.25;4970484;28;20443;-88
2023/05/30 08:09:37;;;;;;;7.10;3.40;;;;;;;24.16;54.52;101248.22;4969600;28;20387;-87
2023/05/30 08:12:04;;;;;;;5.35;3.70;;;;;;;24.20;55.50;101234.56;4987833;28;20030;-83
2023/05/30 08:14:31;;;;;;;5.60;3.83;;;;;;;24.39;54.41;101238.13;4988323;28;20041;-85
2023/05/30 08:16:56;;;;;;;4.40;3.53;;;;;;;24.51;54.42;101237.75;5005571;28;20495;-89
2023/05/30 08:19:22;;;;;;;5.95;3.63;;;;;;;24.31;53.53;101223.00;4970997;28;20092;-87
2023/05/30 08:21:47;;;;;;;6.35;3.40;;;;;;;24.23;54.03;101236.09;4989343;28;20472;-87
2023/05/30 08:24:15;;;;;;;4.90;3.17;;;;;;;24.31;53.83;101230.91;5000754;28;20044;-86
2023/05/30 08:26:41;;;;;;;5.13;3.65;;;;;;;24.40;53.60;101226.56;5008063;28;20095;-85
2023/05/30 08:29:06;;;;;;;6.05;3.65;;;;;;;24.48;54.36;101216.88;4957514;28;20494;-89
2023/05/30 08:31:32;;;;;;;6.53;3.60;;;;;;;24.78;53.33;101228.06;4978410;28;20036;-92
2023/05/30 08:33:58;;;;;;;5.55;3.72;;;;;;;25.04;52.74;101223.66;4970897;28;20493;-87
2023/05/30 08:36:23;;;;;;;9.63;4.22;;;;;;;25.13;52.23;101227.19;4989018;28;20041;-89
2023/05/30 08:38:54;;;;;;;6.45;4.18;;;;;;;25.30;52.82;101226.31;4957428;28;20481;-91
2023/05/30 08:41:22;;;;;;;5.13;3.40;;;;;;;25.32;51.89;101202.31;4972793;28;20027;-91
2023/05/30 08:43:48;;;;;;;5.15;3.38;;;;;;;25.61;50.75;101233.75;4979270;28;20034;-93
2023/05/30 08:46:15;;;;;;;4.30;3.42;;;;;;;25.41;50.83;101230.50;4963404;28;20189;-87
2023/05/30 08:48:41;;;;;;;4.80;3.38;;;;;;;25.41;50.06;101231.34;4977195;28;20027;-86
2023/05/30 08:51:06;;;;;;;6.22;3.30;;;;;;;25.18;51.24;101240.81;4975888;28;20030;-90
2023/05/30 08:53:34;;;;;;;4.97;3.13;;;;;;;25.06;51.43;101229.63;4975333;28;20038;-89
2023/05/30 08:56:07;;;;;;;4.85;3.33;;;;;;;25.25;50.49;101227.75;4976959;28;20022;-88
2023/05/30 08:58:35;;;;;;;4.07;3.30;;;;;;;25.17;50.07;101229.38;4992964;28;20056;-89
2023/05/30 09:01:01;;;;;;;4.53;2.95;;;;;;;25.29;49.46;101223.81;4975892;28;20031;-83
2023/05/30 09:03:27;;;;;;;3.95;2.78;;;;;;;25.33;48.56;101233.94;4988540;28;20061;-88
2023/05/30 09:05:53;;;;;;;3.58;2.40;;;;;;;25.31;47.92;101203.31;4980237;28;20032;-85
2023/05/30 09:08:18;;;;;;;4.22;2.60;;;;;;;25.73;46.15;101229.88;4983624;28;20026;-87
2023/05/30 09:10:48;;;;;;;2.85;2.03;;;;;;;25.69;46.48;101216.09;4976250;28;20034;-86
2023/05/30 09:13:15;;;;;;;11.50;8.18;;;;;;;25.82;44.07;101225.44;4972689;28;20031;-90
2023/05/30 09:15:40;;;;;;;3.90;2.90;;;;;;;26.01;47.40;101219.88;4995365;28;20034;-94
2023/05/30 09:18:06;;;;;;;4.10;2.40;;;;;;;25.96;46.32;101198.34;4991534;28;20111;-86
2023/05/30 09:20:31;;;;;;;3.90;2.50;;;;;;;26.01;47.99;101210.09;4993959;28;20046;-87
2023/05/30 09:22:58;;;;;;;3.75;2.72;;;;;;;26.17;49.12;101216.44;4981994;28;20539;-87
2023/05/30 09:25:24;;;;;;;7.00;2.90;;;;;;;26.40;49.33;101216.69;4963544;28;20424;-86
2023/05/30 09:27:50;;;;;;;3.58;2.47;;;;;;;26.59;46.92;101211.06;4990328;28;20475;-87
2023/05/30 09:30:16;;;;;;;7.85;2.75;;;;;;;26.76;47.50;101207.44;4993093;28;20046;-90
2023/05/30 09:32:42;;;;;;;4.43;2.70;;;;;;;26.94;47.18;101209.91;5009273;28;20033;-86
2023/05/30 09:35:09;;;;;;;7.03;2.67;;;;;;;27.02;46.75;101207.25;4993076;28;20053;-88
2023/05/30 09:37:43;;;;;;;4.22;2.47;;;;;;;26.93;46.53;101197.59;4989897;28;20511;-89
2023/05/30 09:40:10;;;;;;;3.40;2.50;;;;;;;27.03;46.19;101197.47;4964256;28;20535;-88
2023/05/30 09:42:49;;;;;;;3.65;2.72;;;;;;;27.05;47.27;101193.66;4984185;28;20028;-88
2023/05/30 09:45:25;;;;;;;7.85;3.83;;;;;;;27.32;47.45;101196.91;4998935;28;20043;-85
2023/05/30 09:47:51;;;;;;;4.30;3.10;;;;;;;27.38;46.97;101185.59;4992680;28;20018;-88
2023/05/30 09:50:18;;;;;;;3.83;2.65;;;;;;;27.56;46.70;101190.69;4975134;28;20488;-87
2023/05/30 09:52:44;;;;;;;3.55;2.75;;;;;;;27.57;46.18;101193.16;4978749;28;20037;-87
2023/05/30 09:55:13;;;;;;;6.45;3.00;;;;;;;27.49;46.22;101193.19;4978829;28;20447;-85
2023/05/30 09:57:40;;;;;;;6.03;2.72;;;;;;;27.54;46.66;101176.75;4989750;28;20034;-86
2023/05/30 10:00:11;;;;;;;4.10;2.78;;;;;;;27.66;45.77;101184.19;4974920;28;20067;-87
2023/05/30 10:02:41;;;;;;;4.32;2.78;;;;;;;27.68;44.90;101158.25;4991612;28;20034;-85
2023/05/30 10:05:16;;;;;;;4.13;2.67;;;;;;;27.77;45.91;101168.88;4991356;28;20030;-85
2023/05/30 10:07:41;;;;;;;8.30;3.10;;;;;;;27.79;44.38;101161.53;4991776;28;20689;-84
2023/05/30 10:10:09;;;;;;;3.70;2.92;;;;;;;27.88;44.05;101153.34;4990872;28;20042;-85
2023/05/30 10:12:34;;;;;;;3.65;2.70;;;;;;;27.96;44.15;101163.09;4987291;28;20031;-83
2023/05/30 10:15:00;;;;;;;5.63;3.05;;;;;;;27.81;45.07;101156.88;4979577;28;20038;-84
2023/05/30 10:17:25;;;;;;;4.43;3.00;;;;;;;27.90;44.64;101153.16;4969894;28;20030;-83
2023/05/30 10:19:59;;;;;;;3.83;2.90;;;;;;;27.84;44.38;101146.72;4970547;28;20453;-88
2023/05/30 10:22:25;;;;;;;7.65;2.95;;;;;;;28.00;43.91;101164.41;4972492;28;20074;-91
2023/05/30 10:24:50;;;;;;;5.20;2.50;;;;;;;27.86;45.93;101154.53;4966274;28;20031;-89
2023/05/30 10:27:18;;;;;;;3.25;2.58;;;;;;;28.00;45.22;101143.94;4997880;28;20042;-87
2023/05/30 10:29:47;;;;;;;4.95;3.08;;;;;;;27.97;46.15;101116.91;4968772;28;20431;-87
2023/05/30 10:32:15;;;;;;;4.30;2.70;;;;;;;28.23;43.91;101138.66;4992118;28;20083;-87
2023/05/30 10:34:49;;;;;;;4.72;3.05;;;;;;;28.33;43.83;101132.31;4986206;28;20034;-87
2023/05/30 10:37:14;;;;;;;3.92;2.95;;;;;;;28.45;43.85;101136.19;4994469;28;20026;-85
2023/05/30 10:39:45;;;;;;;5.03;3.05;;;;;;;28.64;43.77;101135.69;4973088;28;20085;-93
2023/05/30 10:42:16;;;;;;;2.80;2.40;;;;;;;28.81;41.56;101142.50;4985793;28;20026;-89
2023/05/30 10:44:54;;;;;;;5.45;2.63;;;;;;;28.92;42.37;101141.25;4974177;28;20031;-88
2023/05/30 10:47:27;;;;;;;5.90;2.78;;;;;;;28.95;43.39;101132.06;4986031;28;20049;-86
2023/05/30 10:49:54;;;;;;;6.70;2.80;;;;;;;29.05;41.80;101127.31;4972931;28;20061;-85
2023/05/30 10:52:30;;;;;;;3.50;2.70;;;;;;;29.14;41.51;101128.88;4970744;28;20054;-86
2023/05/30 10:54:55;;;;;;;3.40;2.47;;;;;;;29.07;42.41;101130.59;4990841;28;20041;-92
2023/05/30 10:57:31;;;;;;;4.20;2.50;;;;;;;29.07;42.20;101119.94;4980841;28;20034;-90
2023/05/30 11:00:09;;;;;;;4.32;2.80;;;;;;;28.96;42.30;101123.06;4993317;28;20110;-92
2023/05/30 11:02:36;;;;;;;3.45;2.58;;;;;;;29.03;42.08;101124.81;4975589;28;20129;-86
2023/05/30 11:05:11;;;;;;;4.50;2.85;;;;;;;29.01;41.79;101115.38;4983087;28;20148;-91
2023/05/30 11:07:37;;;;;;;4.38;2.50;;;;;;;29.27;42.22;101121.03;4981214;28;20492;-90
2023/05/30 11:10:14;;;;;;;3.20;2.45;;;;;;;29.45;40.51;101110.00;4975675;28;20034;-84
2023/05/30 11:12:47;;;;;;;3.85;2.55;;;;;;;29.41;40.08;101111.38;4973885;28;20507;-84
2023/05/30 11:15:16;;;;;;;3.55;2.72;;;;;;;29.36;40.80;101103.13;4989968;28;20049;-87
2023/05/30 11:17:42;;;;;;;3.78;2.70;;;;;;;29.43;41.09;101098.69;4973091;28;20026;-85
2023/05/30 11:20:17;;;;;;;3.88;3.00;;;;;;;29.46;41.26;101076.16;4971985;28;20057;-82
2023/05/30 11:23:02;;;;;;;3.35;2.70;;;;;;;29.77;39.17;101095.41;4972126;28;20093;-89